Time;durP1;ratioP1;P1;durP2;ratioP2;P2;SDS_P1;SDS_P2;PMS_P1;PMS_P2;Temp;Humidity;BMP_temperature;BMP_pressure;BME280_temperature;BME280_humidity;BME280_pressure;Samples;Min_cycle;Max_cycle;Signal;HPM_P1;HPM_P2
2022/03/18 00:02:22;;;;;;;9.85;4.78;;;7.00;86.90;;;;;;6160515;23;20037;-83
2022/03/18 00:04:49;;;;;;;8.80;3.90;;;7.00;86.90;;;;;;6160613;23;20001;-83
2022/03/18 00:07:23;;;;;;;12.65;4.68;;;7.00;87.50;;;;;;6186548;23;20087;-84
2022/03/18 00:09:50;;;;;;;15.52;4.85;;;6.90;87.90;;;;;;6186444;23;20044;-83
2022/03/18 00:12:16;;;;;;;11.32;4.40;;;6.90;87.80;;;;;;6186586;23;20020;-83
2022/03/18 00:14:42;;;;;;;13.45;4.53;;;6.90;87.60;;;;;;6136005;23;20001;-84
2022/03/18 00:17:09;;;;;;;13.82;4.82;;;6.90;87.80;;;;;;6186578;23;20005;-83
2022/03/18 00:19:36;;;;;;;9.68;4.05;;;6.90;87.80;;;;;;6160296;23;20309;-84
2022/03/18 00:22:03;;;;;;;12.48;4.30;;;6.80;88.10;;;;;;6160022;23;20060;-83
2022/03/18 00:24:31;;;;;;;12.57;4.88;;;6.90;88.30;;;;;;6159584;23;20100;-85
2022/03/18 00:26:57;;;;;;;11.68;4.15;;;6.80;88.30;;;;;;6160402;23;20017;-83
2022/03/18 00:29:23;;;;;;;8.52;4.15;;;6.80;88.30;;;;;;6186299;23;20028;-84
2022/03/18 00:31:49;;;;;;;10.88;4.20;;;6.80;88.90;;;;;;6135210;23;20095;-83
2022/03/18 00:34:15;;;;;;;11.13;4.65;;;6.80;89.20;;;;;;6159872;23;20036;-83
2022/03/18 00:36:41;;;;;;;12.93;4.57;;;6.70;88.80;;;;;;6110028;23;20462;-84
2022/03/18 00:39:07;;;;;;;16.02;5.25;;;6.70;88.60;;;;;;6135401;23;20009;-83
2022/03/18 00:41:33;;;;;;;13.85;5.50;;;6.70;88.40;;;;;;6159402;23;20412;-84
2022/03/18 00:43:59;;;;;;;11.52;5.32;;;6.60;88.50;;;;;;6159355;23;20032;-84
2022/03/18 00:46:25;;;;;;;12.85;5.25;;;6.60;88.60;;;;;;6159531;23;19997;-83
2022/03/18 00:54:20;;;;;;;19.52;7.00;;;6.50;90.10;;;;;;6163521;23;20068;-83
2022/03/18 00:56:46;;;;;;;15.70;6.18;;;6.50;89.40;;;;;;6134840;23;20013;-84
2022/03/18 00:59:12;;;;;;;19.70;6.57;;;6.40;89.20;;;;;;6135034;23;20009;-83
2022/03/18 01:01:38;;;;;;;14.32;6.30;;;6.40;89.20;;;;;;6134597;23;20343;-84
2022/03/18 01:04:04;;;;;;;13.25;6.28;;;6.40;89.00;;;;;;6134767;23;20008;-84
2022/03/18 01:06:31;;;;;;;12.40;5.82;;;6.40;89.30;;;;;;6129568;23;20519;-84
2022/03/18 01:08:56;;;;;;;13.80;5.85;;;6.30;89.60;;;;;;6178795;23;20001;-84
2022/03/18 01:11:22;;;;;;;16.00;6.25;;;6.30;89.90;;;;;;6129764;23;20073;-83
2022/03/18 01:13:48;;;;;;;13.18;6.40;;;6.30;90.00;;;;;;6154014;23;20071;-84
2022/03/18 01:16:14;;;;;;;16.40;6.13;;;6.20;90.10;;;;;;6153299;23;20168;-84
2022/03/18 01:18:40;;;;;;;15.43;6.70;;;6.20;90.10;;;;;;6129483;23;20436;-85
2022/03/18 01:21:05;;;;;;;17.88;6.10;;;6.20;90.20;;;;;;6179657;23;20025;-83
2022/03/18 01:23:31;;;;;;;12.48;5.82;;;6.20;90.40;;;;;;6156265;23;20001;-84
2022/03/18 01:25:57;;;;;;;14.07;6.18;;;6.20;90.40;;;;;;6154550;23;20001;-83
2022/03/18 01:28:23;;;;;;;15.77;6.22;;;6.10;90.40;;;;;;6155387;23;20057;-84
2022/03/18 01:30:49;;;;;;;12.50;6.18;;;6.10;90.50;;;;;;6154476;23;20005;-84
2022/03/18 01:33:14;;;;;;;14.98;6.65;;;6.10;90.70;;;;;;6179321;23;20002;-84
2022/03/18 01:35:40;;;;;;;14.50;6.20;;;6.10;90.80;;;;;;6179507;23;20005;-84
2022/03/18 01:38:06;;;;;;;15.15;6.05;;;6.00;90.90;;;;;;6179387;23;20089;-84
2022/03/18 01:40:32;;;;;;;14.52;6.28;;;6.00;90.90;;;;;;6179422;23;20010;-84
2022/03/18 01:42:57;;;;;;;12.15;5.55;;;6.00;90.80;;;;;;6129764;23;20005;-84
2022/03/18 01:45:26;;;;;;;15.80;5.88;;;6.00;90.90;;;;;;6154290;23;20001;-84
2022/03/18 01:47:52;;;;;;;15.68;6.22;;;5.90;90.90;;;;;;6129948;23;20029;-83
2022/03/18 01:50:18;;;;;;;12.63;5.72;;;5.90;90.90;;;;;;6155888;23;20012;-84
2022/03/18 01:52:45;;;;;;;12.90;5.30;;;5.90;90.90;;;;;;6129736;23;20030;-84
2022/03/18 01:55:12;;;;;;;13.80;5.22;;;5.80;91.10;;;;;;6179055;23;20002;-84
2022/03/18 01:57:38;;;;;;;15.07;6.43;;;5.80;91.30;;;;;;6159673;23;20088;-88
2022/03/18 02:00:06;;;;;;;12.13;5.80;;;5.80;91.60;;;;;;6150584;23;20020;-84
2022/03/18 02:02:32;;;;;;;12.43;5.40;;;5.80;91.70;;;;;;6151796;23;20008;-84
2022/03/18 02:04:58;;;;;;;13.60;5.80;;;5.80;91.80;;;;;;6148279;23;20088;-84
2022/03/18 02:07:24;;;;;;;11.27;5.47;;;5.70;91.50;;;;;;6163889;23;20009;-85
2022/03/18 02:09:50;;;;;;;14.45;5.63;;;5.70;91.50;;;;;;6203691;23;20024;-84
2022/03/18 02:12:15;;;;;;;9.93;4.78;;;5.60;91.70;;;;;;6175907;23;20011;-84
2022/03/18 02:14:43;;;;;;;13.32;5.30;;;5.60;91.50;;;;;;6145708;23;20001;-84
2022/03/18 02:17:12;;;;;;;11.60;5.93;;;5.60;91.60;;;;;;6187134;23;20021;-84
2022/03/18 02:19:39;;;;;;;13.65;5.45;;;5.60;91.80;;;;;;6186184;23;20016;-84
2022/03/18 02:22:13;;;;;;;11.93;5.57;;;5.50;91.80;;;;;;6160013;23;20029;-83
2022/03/18 02:24:40;;;;;;;13.75;5.97;;;5.50;91.90;;;;;;6159241;23;20012;-85
2022/03/18 02:27:06;;;;;;;11.85;4.93;;;5.50;92.00;;;;;;6160038;23;20012;-84
2022/03/18 02:29:32;;;;;;;16.00;5.30;;;5.50;92.10;;;;;;6159638;23;20076;-84
2022/03/18 02:31:59;;;;;;;13.32;5.80;;;5.40;92.10;;;;;;6186141;23;20005;-84
2022/03/18 02:34:26;;;;;;;14.68;5.38;;;5.50;92.20;;;;;;6185507;23;20029;-83
2022/03/18 02:36:52;;;;;;;14.70;5.15;;;5.40;92.20;;;;;;6158828;23;20012;-84
2022/03/18 02:39:17;;;;;;;10.32;5.30;;;5.40;92.40;;;;;;6157957;23;20131;-83
2022/03/18 02:41:43;;;;;;;13.30;5.05;;;5.40;92.40;;;;;;6134373;23;20412;-84
2022/03/18 02:44:09;;;;;;;12.68;5.32;;;5.30;92.60;;;;;;6135397;23;20396;-84
2022/03/18 02:46:35;;;;;;;13.95;5.57;;;5.30;92.60;;;;;;6161343;23;20001;-84
2022/03/18 02:49:01;;;;;;;14.52;5.65;;;5.30;92.70;;;;;;6184535;23;20016;-84
2022/03/18 02:51:28;;;;;;;11.00;5.10;;;5.30;92.70;;;;;;6184192;23;20009;-84
2022/03/18 02:53:54;;;;;;;12.90;6.07;;;5.30;92.90;;;;;;6185704;23;19997;-84
2022/03/18 02:56:20;;;;;;;13.90;5.30;;;5.30;92.90;;;;;;6158650;23;20028;-84
2022/03/18 02:58:45;;;;;;;12.35;5.57;;;5.30;93.00;;;;;;6158535;23;20006;-84
2022/03/18 03:01:11;;;;;;;13.60;5.88;;;5.30;93.00;;;;;;6159149;23;20071;-84
2022/03/18 03:03:37;;;;;;;11.80;4.88;;;5.30;93.00;;;;;;6185194;23;20009;-84
2022/03/18 03:08:47;;;;;;;12.85;5.53;;;5.20;93.20;;;;;;6167846;23;20039;-84
2022/03/18 03:11:12;;;;;;;13.00;5.72;;;5.20;93.20;;;;;;6142094;23;20423;-83
2022/03/18 03:13:38;;;;;;;13.77;5.25;;;5.10;93.20;;;;;;6168073;23;20474;-84
2022/03/18 03:16:04;;;;;;;10.02;5.70;;;5.10;93.30;;;;;;6140430;23;20005;-84
2022/03/18 03:18:30;;;;;;;15.38;5.28;;;5.10;93.40;;;;;;6140668;23;20021;-84
2022/03/18 03:20:56;;;;;;;12.48;5.25;;;5.10;93.40;;;;;;6139285;23;20015;-85
2022/03/18 03:23:25;;;;;;;13.70;5.35;;;5.00;93.40;;;;;;6162045;23;20139;-84
2022/03/18 03:25:52;;;;;;;16.88;4.90;;;5.10;93.50;;;;;;6136985;23;20005;-83
2022/03/18 03:28:18;;;;;;;13.60;6.20;;;5.00;93.60;;;;;;6187443;23;20090;-83
2022/03/18 03:30:44;;;;;;;14.18;5.22;;;5.00;93.60;;;;;;6159996;23;20001;-85
2022/03/18 03:33:10;;;;;;;12.63;5.38;;;5.00;93.70;;;;;;6186339;23;20001;-84
2022/03/18 03:35:36;;;;;;;12.70;5.47;;;5.00;93.80;;;;;;6160945;23;20362;-83
2022/03/18 03:38:03;;;;;;;15.15;5.00;;;4.90;93.80;;;;;;6160322;23;20058;-83
2022/03/18 03:40:29;;;;;;;10.40;4.88;;;4.90;93.90;;;;;;6186782;23;20036;-85
2022/03/18 03:42:54;;;;;;;10.50;4.68;;;4.90;94.00;;;;;;6160415;23;20005;-84
2022/03/18 03:45:20;;;;;;;11.38;4.95;;;4.80;94.00;;;;;;6163340;23;20427;-84
2022/03/18 03:47:46;;;;;;;14.88;5.47;;;4.80;94.00;;;;;;6165540;23;20001;-85
2022/03/18 03:50:12;;;;;;;10.20;4.75;;;4.80;94.10;;;;;;6141424;23;20036;-84
2022/03/18 03:52:38;;;;;;;12.05;5.30;;;4.80;94.40;;;;;;6136720;23;20009;-83
2022/03/18 03:55:05;;;;;;;15.85;5.65;;;4.70;94.40;;;;;;6161262;23;20364;-83
2022/03/18 03:57:31;;;;;;;9.63;4.93;;;4.70;94.40;;;;;;6187574;23;20005;-83
2022/03/18 03:59:56;;;;;;;14.27;5.25;;;4.70;94.40;;;;;;6186277;23;20384;-84
2022/03/18 04:02:23;;;;;;;12.93;4.70;;;4.70;94.40;;;;;;6160294;23;20010;-83
2022/03/18 04:04:49;;;;;;;8.68;4.90;;;4.60;94.40;;;;;;6209681;23;20005;-84
2022/03/18 04:07:15;;;;;;;10.65;5.18;;;4.60;94.50;;;;;;6147497;23;20467;-83
2022/03/18 04:09:42;;;;;;;9.63;5.25;;;4.60;94.60;;;;;;6130531;23;20041;-83
2022/03/18 04:12:08;;;;;;;12.82;5.00;;;4.50;94.60;;;;;;6130185;23;19998;-83
2022/03/18 04:14:34;;;;;;;13.70;4.93;;;4.50;94.70;;;;;;6106252;23;20335;-83
2022/03/18 04:17:02;;;;;;;9.65;4.88;;;4.50;94.80;;;;;;6129501;23;20013;-84
2022/03/18 04:19:28;;;;;;;12.75;5.40;;;4.50;95.00;;;;;;6105827;23;20041;-83
2022/03/18 04:21:53;;;;;;;10.20;4.68;;;4.50;95.20;;;;;;6130514;23;20001;-83
2022/03/18 04:24:19;;;;;;;12.68;4.45;;;4.50;95.30;;;;;;6106218;23;20336;-83
2022/03/18 04:26:45;;;;;;;10.07;4.80;;;4.50;95.50;;;;;;6156252;23;20005;-83
2022/03/18 04:29:12;;;;;;;11.15;4.95;;;4.40;95.50;;;;;;6105801;23;20005;-83
2022/03/18 04:31:39;;;;;;;12.63;5.07;;;4.50;95.70;;;;;;6130067;23;20013;-83
2022/03/18 04:34:04;;;;;;;10.82;4.65;;;4.40;95.80;;;;;;6130683;23;20012;-84
2022/03/18 04:36:30;;;;;;;12.63;4.88;;;4.40;96.10;;;;;;6130420;23;20037;-83
2022/03/18 04:38:56;;;;;;;11.25;4.50;;;4.40;96.20;;;;;;6105985;23;20052;-83
2022/03/18 04:41:22;;;;;;;11.52;5.90;;;4.40;96.20;;;;;;6156111;23;20024;-84
2022/03/18 04:43:48;;;;;;;11.07;5.13;;;4.30;96.20;;;;;;6130733;23;20009;-84
2022/03/18 04:46:14;;;;;;;12.90;4.95;;;4.30;96.30;;;;;;6130260;23;19998;-83
2022/03/18 04:48:40;;;;;;;10.23;5.22;;;4.30;96.40;;;;;;6130514;23;20077;-85
2022/03/18 04:51:06;;;;;;;9.63;4.80;;;4.30;96.30;;;;;;6130319;23;20006;-84
2022/03/18 04:53:32;;;;;;;8.85;4.50;;;4.30;96.40;;;;;;6130359;23;20005;-83
2022/03/18 04:55:57;;;;;;;9.85;5.07;;;4.20;96.60;;;;;;6129643;23;20017;-84
2022/03/18 04:58:23;;;;;;;10.73;5.07;;;4.20;96.70;;;;;;6130081;23;20438;-83
2022/03/18 05:00:49;;;;;;;12.73;5.18;;;4.20;96.90;;;;;;6133032;23;20014;-83
2022/03/18 05:03:15;;;;;;;11.88;5.50;;;4.20;96.90;;;;;;6105585;23;20416;-83
2022/03/18 05:05:40;;;;;;;12.75;4.68;;;4.20;96.90;;;;;;6130175;23;20016;-84
2022/03/18 05:08:06;;;;;;;12.32;4.95;;;4.20;97.00;;;;;;6156252;23;20332;-83
2022/03/18 05:10:33;;;;;;;10.65;5.18;;;4.10;97.00;;;;;;6130502;23;20067;-84
2022/03/18 05:12:59;;;;;;;14.13;5.35;;;4.10;97.10;;;;;;6130314;23;20001;-84
2022/03/18 05:15:24;;;;;;;10.35;4.57;;;4.10;97.20;;;;;;6130446;23;20006;-83
2022/03/18 05:17:52;;;;;;;10.77;4.68;;;4.00;97.20;;;;;;6082092;23;20012;-83
2022/03/18 05:20:18;;;;;;;11.15;5.05;;;4.00;97.20;;;;;;6107080;23;20428;-83
2022/03/18 05:22:45;;;;;;;10.68;5.28;;;4.00;97.40;;;;;;6131971;23;20450;-83
2022/03/18 05:25:12;;;;;;;11.30;5.13;;;4.00;97.50;;;;;;6112764;23;20391;-84
2022/03/18 05:27:44;;;;;;;13.82;5.22;;;4.00;97.80;;;;;;6158875;23;20009;-83
2022/03/18 05:30:13;;;;;;;14.35;5.07;;;4.00;97.70;;;;;;6157479;23;20001;-84
2022/03/18 05:32:40;;;;;;;10.07;4.45;;;3.90;97.80;;;;;;6106826;23;20108;-84
2022/03/18 05:35:06;;;;;;;9.95;4.72;;;3.90;97.90;;;;;;6130745;23;20432;-84
2022/03/18 05:37:32;;;;;;;11.32;4.72;;;3.90;98.10;;;;;;6156379;23;20003;-83
2022/03/18 05:39:57;;;;;;;9.55;4.70;;;3.90;98.50;;;;;;6089523;23;20033;-85
2022/03/18 05:42:23;;;;;;;11.07;4.53;;;3.90;98.70;;;;;;6147771;23;20009;-87
2022/03/18 05:44:49;;;;;;;9.75;4.70;;;3.90;98.70;;;;;;6148987;23;20009;-84
2022/03/18 05:47:15;;;;;;;13.80;6.25;;;3.90;98.70;;;;;;6128402;23;20002;-84
2022/03/18 05:49:41;;;;;;;10.32;5.32;;;3.90;98.70;;;;;;6145193;23;20064;-83
2022/03/18 05:52:07;;;;;;;12.65;7.40;;;3.90;99.10;;;;;;6146610;23;20055;-84
2022/03/18 05:54:33;;;;;;;10.75;5.40;;;3.80;98.90;;;;;;6139695;23;20009;-84
2022/03/18 05:56:59;;;;;;;8.05;4.75;;;3.80;98.90;;;;;;6133286;23;20013;-84
2022/03/18 05:59:31;;;;;;;10.15;6.60;;;3.80;99.00;;;;;;6129466;23;20321;-83
2022/03/18 06:01:58;;;;;;;12.90;5.75;;;3.80;99.20;;;;;;6131220;23;20006;-83
2022/03/18 06:04:25;;;;;;;9.55;4.95;;;3.80;99.30;;;;;;6130107;23;20012;-83
2022/03/18 06:06:50;;;;;;;13.07;5.85;;;3.70;99.20;;;;;;6129367;23;20172;-84
2022/03/18 06:12:03;;;;;;;11.98;5.32;;;3.80;99.40;;;;;;6155606;23;20028;-83
2022/03/18 06:14:30;;;;;;;9.82;5.10;;;3.70;99.40;;;;;;6155766;23;20009;-83
2022/03/18 06:17:00;;;;;;;12.90;5.50;;;3.70;99.50;;;;;;6155422;23;20009;-83
2022/03/18 06:19:27;;;;;;;11.18;5.10;;;3.70;99.60;;;;;;6155573;23;20088;-83
2022/03/18 06:21:53;;;;;;;13.52;5.38;;;3.70;99.60;;;;;;6130105;23;20002;-83
2022/03/18 06:24:21;;;;;;;17.05;4.93;;;3.80;99.70;;;;;;6129236;23;20006;-83
2022/03/18 06:26:47;;;;;;;15.75;5.60;;;3.70;99.80;;;;;;6154921;23;20053;-85
2022/03/18 06:29:13;;;;;;;12.00;5.28;;;3.80;99.90;;;;;;6129287;23;20074;-85
2022/03/18 06:31:39;;;;;;;9.50;5.03;;;3.80;99.90;;;;;;6163443;23;19997;-86
2022/03/18 06:34:06;;;;;;;11.73;5.32;;;3.80;99.90;;;;;;6146342;23;20045;-86
2022/03/18 06:36:32;;;;;;;10.90;5.53;;;3.80;99.90;;;;;;6168965;23;19998;-86
2022/03/18 06:38:58;;;;;;;13.43;5.20;;;3.80;99.90;;;;;;6120516;23;20002;-83
2022/03/18 06:41:25;;;;;;;10.50;5.22;;;3.90;99.90;;;;;;6143034;23;20021;-84
2022/03/18 06:43:53;;;;;;;14.00;5.85;;;3.90;99.90;;;;;;6138712;23;20153;-86
2022/03/18 06:46:19;;;;;;;12.65;5.60;;;3.90;99.90;;;;;;6133872;23;20012;-85
2022/03/18 06:48:45;;;;;;;10.43;4.75;;;3.90;99.90;;;;;;6161889;23;20002;-83
2022/03/18 06:51:11;;;;;;;18.52;5.60;;;4.00;99.90;;;;;;6136919;23;20411;-83
2022/03/18 06:53:37;;;;;;;15.52;6.18;;;4.00;99.90;;;;;;6134702;23;20018;-84
2022/03/18 06:56:06;;;;;;;13.27;5.80;;;4.00;99.90;;;;;;6133354;23;20012;-82
2022/03/18 06:58:33;;;;;;;13.68;5.57;;;4.10;99.90;;;;;;6136916;23;20008;-84
2022/03/18 07:00:59;;;;;;;16.08;6.30;;;4.10;99.90;;;;;;6109745;23;20033;-83
2022/03/18 07:03:25;;;;;;;13.23;6.35;;;4.10;99.90;;;;;;6133476;23;20420;-84
2022/03/18 07:05:51;;;;;;;14.93;5.53;;;4.20;99.90;;;;;;6158301;23;20061;-85
2022/03/18 07:08:16;;;;;;;12.13;5.18;;;4.20;99.90;;;;;;6133829;23;20041;-83
2022/03/18 07:10:43;;;;;;;12.02;5.40;;;4.30;99.90;;;;;;6109278;23;20020;-83
2022/03/18 07:13:09;;;;;;;12.18;6.13;;;4.30;99.90;;;;;;6118586;23;20101;-84
2022/03/18 07:15:35;;;;;;;9.57;5.43;;;4.30;99.90;;;;;;6113612;23;20010;-84
2022/03/18 07:18:02;;;;;;;13.32;5.60;;;4.40;99.90;;;;;;6109591;23;20016;-84
2022/03/18 07:20:46;;;;;;;10.82;5.18;;;4.50;99.90;;;;;;6135853;23;20065;-85
2022/03/18 07:23:16;;;;;;;15.38;5.13;;;4.50;99.90;;;;;;6134231;23;20006;-85
2022/03/18 07:25:47;;;;;;;14.30;5.35;;;4.60;99.90;;;;;;6132666;23;20435;-84
2022/03/18 07:28:14;;;;;;;12.23;5.00;;;4.70;99.90;;;;;;6161544;23;20006;-84
2022/03/18 07:30:41;;;;;;;10.50;4.75;;;4.80;99.90;;;;;;6132494;23;20073;-84
2022/03/18 07:33:07;;;;;;;21.98;6.38;;;4.90;99.90;;;;;;6107837;23;20016;-86
2022/03/18 07:35:34;;;;;;;18.35;5.78;;;4.90;99.90;;;;;;6132243;23;20440;-84
2022/03/18 07:38:00;;;;;;;16.38;5.82;;;5.00;99.90;;;;;;6131995;23;20096;-84
2022/03/18 07:40:26;;;;;;;15.38;5.38;;;5.10;99.90;;;;;;6107116;23;20467;-85
2022/03/18 07:42:57;;;;;;;12.73;5.65;;;5.10;99.90;;;;;;6158115;23;20053;-85
2022/03/18 07:45:31;;;;;;;17.83;6.18;;;5.20;99.90;;;;;;6157034;23;20347;-85
2022/03/18 07:47:59;;;;;;;16.70;5.15;;;5.30;99.90;;;;;;6139415;23;20012;-85
2022/03/18 07:50:27;;;;;;;16.00;5.38;;;5.40;99.90;;;;;;6132033;23;20010;-84
2022/03/18 07:52:55;;;;;;;18.85;6.18;;;5.50;99.90;;;;;;6130930;23;20009;-84
2022/03/18 07:55:24;;;;;;;14.30;5.53;;;5.50;99.90;;;;;;6131770;23;20006;-84
2022/03/18 07:57:51;;;;;;;20.52;6.07;;;5.60;99.90;;;;;;6131182;23;20005;-84
2022/03/18 08:00:17;;;;;;;12.00;5.45;;;5.70;99.90;;;;;;6130145;23;20033;-85
2022/03/18 08:02:45;;;;;;;13.38;5.53;;;5.80;99.90;;;;;;6103200;23;20005;-84
2022/03/18 08:05:11;;;;;;;14.93;5.55;;;5.90;99.90;;;;;;6129534;23;20328;-87
2022/03/18 08:07:38;;;;;;;10.65;5.22;;;5.90;99.90;;;;;;6142746;23;20023;-84
2022/03/18 08:10:05;;;;;;;12.02;4.63;;;6.00;99.90;;;;;;6186723;23;20009;-85
2022/03/18 08:12:32;;;;;;;13.00;6.18;;;6.10;99.90;;;;;;6163261;23;20005;-85
2022/03/18 08:14:58;;;;;;;10.00;4.65;;;6.20;99.90;;;;;;6161175;23;20083;-84
2022/03/18 08:17:25;;;;;;;21.60;6.57;;;6.30;99.90;;;;;;6187696;23;19997;-84
2022/03/18 08:19:51;;;;;;;15.77;5.28;;;6.40;99.90;;;;;;6159503;23;20005;-83
2022/03/18 08:22:21;;;;;;;14.73;4.68;;;6.50;99.90;;;;;;6160413;23;20028;-84
2022/03/18 08:24:48;;;;;;;13.63;4.65;;;6.60;99.90;;;;;;6186632;23;20010;-83
2022/03/18 08:27:14;;;;;;;19.38;4.60;;;6.70;99.90;;;;;;6134793;23;20005;-84
2022/03/18 08:29:40;;;;;;;13.05;4.25;;;6.80;99.90;;;;;;6110817;23;20031;-83
2022/03/18 08:32:07;;;;;;;14.95;4.60;;;6.90;99.90;;;;;;6110504;23;20005;-83
2022/03/18 08:34:33;;;;;;;15.32;4.55;;;7.00;99.90;;;;;;6110419;23;20013;-83
2022/03/18 08:36:58;;;;;;;10.90;3.78;;;7.10;99.90;;;;;;6135348;23;20519;-83
2022/03/18 08:39:24;;;;;;;12.35;4.13;;;7.20;99.90;;;;;;6159743;23;20005;-83
2022/03/18 08:41:50;;;;;;;10.93;3.53;;;7.30;99.90;;;;;;6135268;23;20028;-83
2022/03/18 08:44:19;;;;;;;14.05;3.97;;;7.40;99.90;;;;;;6135157;23;20060;-84
2022/03/18 08:46:46;;;;;;;14.65;3.88;;;7.50;99.90;;;;;;6135861;23;20105;-83
2022/03/18 08:49:12;;;;;;;9.23;3.85;;;7.50;99.90;;;;;;6159884;23;20450;-83
2022/03/18 08:51:38;;;;;;;11.35;3.63;;;7.60;99.90;;;;;;6110798;23;20013;-83
2022/03/18 08:54:04;;;;;;;10.57;3.80;;;7.70;99.90;;;;;;6135113;23;20056;-83
2022/03/18 08:56:31;;;;;;;9.70;3.90;;;7.80;99.90;;;;;;6186305;23;20446;-84
2022/03/18 08:58:57;;;;;;;9.07;3.30;;;7.90;99.90;;;;;;6134344;23;20324;-85
2022/03/18 09:01:23;;;;;;;11.15;3.45;;;8.00;99.90;;;;;;6159987;23;20044;-84
2022/03/18 09:03:49;;;;;;;9.13;3.38;;;8.10;99.90;;;;;;6159739;23;20297;-83
2022/03/18 09:06:15;;;;;;;9.52;3.20;;;8.20;99.90;;;;;;6134485;23;20013;-84
2022/03/18 09:08:41;;;;;;;11.10;3.65;;;8.30;99.90;;;;;;6159720;23;20024;-84
2022/03/18 09:11:07;;;;;;;11.93;3.03;;;8.40;99.90;;;;;;6160059;23;20009;-84
2022/03/18 09:13:35;;;;;;;10.18;2.75;;;8.50;99.90;;;;;;6159558;23;19997;-84
2022/03/18 09:16:02;;;;;;;9.43;3.17;;;8.60;99.90;;;;;;6159606;23;20005;-84
2022/03/18 09:18:28;;;;;;;11.00;2.78;;;8.70;99.90;;;;;;6109879;23;20005;-84
2022/03/18 09:20:54;;;;;;;7.60;1.92;;;8.80;99.00;;;;;;6160308;23;20010;-83
2022/03/18 09:23:20;;;;;;;7.22;2.15;;;9.00;97.30;;;;;;6173126;23;20061;-85
2022/03/18 09:25:45;;;;;;;5.63;2.38;;;9.10;97.60;;;;;;6179714;23;20028;-84
2022/03/18 09:28:11;;;;;;;11.23;2.78;;;9.20;97.10;;;;;;6156060;23;20073;-85
2022/03/18 09:30:36;;;;;;;6.60;2.05;;;9.40;97.10;;;;;;6155779;23;20059;-86
2022/03/18 09:33:03;;;;;;;6.85;1.77;;;9.40;96.10;;;;;;6153895;23;20008;-86
2022/03/18 09:35:29;;;;;;;11.13;2.33;;;9.60;95.80;;;;;;6154164;23;20060;-85
2022/03/18 09:37:54;;;;;;;6.28;2.17;;;9.70;94.70;;;;;;6143890;23;20002;-86
2022/03/18 09:40:20;;;;;;;4.72;1.90;;;9.80;94.20;;;;;;6162261;23;20449;-85
2022/03/18 09:43:02;;;;;;;7.50;2.05;;;10.00;94.50;;;;;;6158529;23;20009;-84
2022/03/18 09:45:31;;;;;;;8.80;2.50;;;10.20;94.30;;;;;;6158675;23;20001;-83
2022/03/18 09:48:07;;;;;;;7.80;2.22;;;10.30;94.10;;;;;;6158030;23;20016;-84
2022/03/18 09:50:33;;;;;;;8.85;2.53;;;10.40;93.70;;;;;;6186092;23;20037;-83
2022/03/18 09:52:59;;;;;;;6.68;2.30;;;10.60;93.20;;;;;;6159320;23;20498;-84
2022/03/18 09:55:25;;;;;;;6.93;3.28;;;10.70;92.80;;;;;;6164625;23;20001;-84
2022/03/18 09:57:52;;;;;;;8.57;2.50;;;10.90;92.60;;;;;;6143621;23;20024;-84
2022/03/18 10:00:18;;;;;;;12.55;4.07;;;11.00;92.50;;;;;;6175394;23;20066;-84
2022/03/18 10:02:44;;;;;;;7.60;2.35;;;11.10;92.30;;;;;;6140709;23;20427;-86
2022/03/18 10:05:15;;;;;;;8.15;2.65;;;11.30;92.20;;;;;;6141456;23;20092;-85
2022/03/18 10:07:56;;;;;;;9.20;3.15;;;11.40;92.40;;;;;;6196449;23;20064;-83
2022/03/18 10:10:23;;;;;;;9.50;2.85;;;11.60;92.20;;;;;;6195413;23;20450;-84
2022/03/18 10:12:50;;;;;;;9.48;2.97;;;11.70;92.40;;;;;;6166494;23;20566;-84
2022/03/18 10:15:28;;;;;;;8.70;2.78;;;11.90;92.00;;;;;;6160638;23;20005;-85
2022/03/18 10:17:56;;;;;;;8.55;3.22;;;12.00;91.40;;;;;;6186425;23;20023;-84
2022/03/18 10:20:26;;;;;;;12.07;3.15;;;12.20;91.30;;;;;;6160626;23;20009;-85
2022/03/18 10:22:53;;;;;;;13.93;3.85;;;12.30;91.10;;;;;;6161438;23;20107;-84
2022/03/18 10:25:52;;;;;;;9.20;3.13;;;12.50;90.90;;;;;;6161234;23;20005;-83
2022/03/18 10:28:43;;;;;;;8.75;3.05;;;12.60;90.40;;;;;;6160804;23;20012;-83
2022/03/18 10:31:20;;;;;;;15.57;3.55;;;12.80;88.90;;;;;;6160769;23;20009;-83
2022/03/18 10:39:51;;;;;;;6.18;2.67;;;13.20;87.30;;;;;;6095854;23;20022;-84
2022/03/18 10:42:20;;;;;;;12.75;3.22;;;13.40;87.80;;;;;;6147376;23;20015;-85
2022/03/18 10:44:51;;;;;;;9.73;3.50;;;13.50;86.30;;;;;;6136113;23;20335;-85
2022/03/18 10:47:33;;;;;;;9.32;2.85;;;13.60;85.20;;;;;;6187239;23;20363;-84
2022/03/18 10:50:11;;;;;;;9.95;3.47;;;13.80;85.50;;;;;;6187121;23;20494;-85
2022/03/18 10:53:00;;;;;;;11.05;3.75;;;13.90;84.20;;;;;;6160776;23;20079;-84
2022/03/18 10:55:38;;;;;;;10.82;3.25;;;14.00;83.30;;;;;;6160466;23;20084;-86
2022/03/18 10:58:21;;;;;;;7.43;2.67;;;14.10;83.20;;;;;;6187060;23;20005;-87
2022/03/18 11:00:50;;;;;;;10.32;2.90;;;14.20;82.90;;;;;;6160359;23;20009;-85
2022/03/18 11:03:16;;;;;;;10.60;3.25;;;14.40;82.00;;;;;;6161148;23;20104;-87
2022/03/18 11:05:45;;;;;;;11.88;3.53;;;14.50;82.20;;;;;;6160795;23;20391;-85
2022/03/18 11:08:21;;;;;;;9.48;2.92;;;14.60;82.30;;;;;;6187368;23;20017;-86
2022/03/18 11:13:38;;;;;;;11.38;3.00;;;14.90;80.20;;;;;;6187042;23;20060;-85
2022/03/18 11:16:05;;;;;;;8.20;2.88;;;15.00;79.30;;;;;;6187345;23;19997;-88
2022/03/18 11:18:36;;;;;;;11.68;3.60;;;15.10;79.10;;;;;;6161869;23;20169;-88
2022/03/18 11:21:03;;;;;;;11.40;3.15;;;15.20;78.00;;;;;;6137473;23;20100;-88
2022/03/18 11:23:30;;;;;;;8.43;2.75;;;15.30;76.70;;;;;;6161612;23;20076;-89
2022/03/18 11:25:57;;;;;;;8.38;3.15;;;15.40;76.90;;;;;;6136500;23;20002;-84
2022/03/18 11:28:23;;;;;;;7.97;2.97;;;15.50;77.40;;;;;;6187046;23;20001;-85
2022/03/18 11:31:04;;;;;;;8.05;2.78;;;15.60;76.40;;;;;;6161215;23;20374;-84
2022/03/18 11:33:30;;;;;;;9.25;3.33;;;15.60;76.30;;;;;;6187011;23;20025;-89
2022/03/18 11:36:03;;;;;;;9.50;3.67;;;15.70;75.90;;;;;;6160843;23;20008;-84
2022/03/18 11:38:52;;;;;;;9.77;4.00;;;15.80;75.10;;;;;;6160848;23;20004;-84
2022/03/18 11:41:19;;;;;;;11.07;4.07;;;15.90;73.80;;;;;;6185432;23;20005;-84
2022/03/18 11:43:44;;;;;;;7.13;2.65;;;16.00;73.40;;;;;;6161429;23;20012;-85
2022/03/18 11:46:13;;;;;;;7.60;3.03;;;16.10;73.40;;;;;;6160451;23;20324;-85
2022/03/18 11:48:56;;;;;;;9.18;3.08;;;16.20;73.30;;;;;;6160565;23;20095;-84
2022/03/18 11:51:32;;;;;;;6.72;2.80;;;16.30;73.50;;;;;;6187185;23;20008;-84
2022/03/18 11:54:00;;;;;;;10.38;3.35;;;16.40;73.00;;;;;;6136447;23;20016;-85
2022/03/18 11:56:45;;;;;;;10.93;3.20;;;16.50;71.70;;;;;;6160819;23;20080;-84
2022/03/18 11:59:25;;;;;;;11.07;3.50;;;16.60;72.30;;;;;;6187136;23;20004;-84
2022/03/18 12:01:55;;;;;;;6.97;2.78;;;16.60;71.90;;;;;;6187155;23;20080;-86
2022/03/18 12:04:33;;;;;;;11.53;3.50;;;16.70;71.90;;;;;;6160549;23;20056;-85
2022/03/18 12:07:24;;;;;;;7.07;3.22;;;16.90;72.30;;;;;;6160150;23;20441;-85
2022/03/18 12:09:51;;;;;;;7.53;3.20;;;17.00;72.40;;;;;;6161352;23;20324;-85
2022/03/18 12:12:19;;;;;;;11.73;3.33;;;17.10;70.70;;;;;;6160317;23;20273;-84
2022/03/18 12:14:45;;;;;;;9.68;3.15;;;17.20;69.90;;;;;;6160675;23;20463;-84
2022/03/18 12:17:11;;;;;;;8.32;3.47;;;17.30;70.00;;;;;;6160778;23;20046;-85
2022/03/18 12:19:37;;;;;;;9.60;3.78;;;17.30;69.60;;;;;;6186536;23;20020;-85
2022/03/18 12:22:03;;;;;;;9.23;3.75;;;17.40;68.60;;;;;;6135467;23;20001;-85
2022/03/18 12:24:32;;;;;;;8.63;3.92;;;17.50;68.90;;;;;;6160441;23;20002;-84
2022/03/18 12:27:01;;;;;;;6.70;3.40;;;17.50;69.10;;;;;;6160311;23;20015;-84
2022/03/18 12:29:29;;;;;;;9.23;3.75;;;17.60;68.90;;;;;;6186801;23;20023;-83
2022/03/18 12:32:06;;;;;;;7.97;3.13;;;17.70;68.30;;;;;;6160729;23;20009;-85
2022/03/18 12:34:35;;;;;;;8.40;3.30;;;17.80;68.00;;;;;;6167963;23;20016;-84
2022/03/18 12:37:03;;;;;;;9.07;3.38;;;17.80;68.20;;;;;;6140265;23;20372;-86
2022/03/18 12:39:29;;;;;;;8.00;3.60;;;17.90;67.70;;;;;;6161088;23;20077;-84
2022/03/18 12:42:11;;;;;;;9.60;4.10;;;18.00;67.60;;;;;;6135717;23;20032;-84
2022/03/18 12:44:46;;;;;;;8.70;3.03;;;18.00;66.10;;;;;;6159988;23;20092;-84
2022/03/18 12:47:14;;;;;;;8.68;2.83;;;18.10;65.20;;;;;;6186164;23;20005;-84
2022/03/18 12:49:40;;;;;;;10.43;3.40;;;18.10;66.30;;;;;;6135010;23;20009;-86
2022/03/18 12:52:13;;;;;;;11.05;3.53;;;18.20;66.00;;;;;;6186295;23;20005;-85
2022/03/18 12:55:00;;;;;;;7.88;3.08;;;18.20;66.20;;;;;;6160137;23;20009;-84
2022/03/18 12:57:26;;;;;;;9.85;3.30;;;18.30;66.30;;;;;;6159700;23;20388;-85
2022/03/18 12:59:57;;;;;;;8.57;3.22;;;18.40;64.60;;;;;;6157666;23;20060;-84
2022/03/18 13:02:24;;;;;;;11.70;3.38;;;18.40;64.50;;;;;;6136021;23;20005;-84
2022/03/18 13:04:59;;;;;;;7.18;2.95;;;18.40;63.70;;;;;;6163059;23;20055;-85
2022/03/18 13:07:28;;;;;;;7.50;3.05;;;18.40;64.30;;;;;;6154609;23;20060;-86
2022/03/18 13:09:57;;;;;;;7.90;2.70;;;18.40;64.00;;;;;;6210176;23;20015;-86
2022/03/18 13:12:28;;;;;;;9.68;3.00;;;18.50;64.90;;;;;;6212959;23;20001;-85